createdAt,value
2019-01-14T00:01:07.062Z,9.14
2019-01-14T00:06:29.251Z,9.00
2019-01-14T00:11:51.451Z,9.04
2019-01-14T00:16:54.658Z,8.01
2019-01-14T00:22:16.916Z,9.06
2019-01-14T00:27:19.591Z,8.98
2019-01-14T00:32:22.310Z,8.96
2019-01-14T00:37:44.490Z,8.84
2019-01-14T00:42:47.367Z,8.94
2019-01-14T00:48:09.561Z,8.84
2019-01-14T00:53:12.234Z,8.59
2019-01-14T00:58:14.907Z,8.56
2019-01-14T01:03:30.666Z,8.41
2019-01-14T01:08:33.373Z,8.31
2019-01-14T01:13:56.020Z,8.36
2019-01-14T01:18:58.693Z,6.00
2019-01-14T01:24:01.386Z,8.31
2019-01-14T01:29:23.676Z,8.33
2019-01-14T01:34:45.879Z,8.19
2019-01-14T01:40:29.318Z,6.41
2019-01-14T01:45:51.537Z,8.04
2019-01-14T01:50:54.224Z,7.86
2019-01-14T01:56:16.407Z,8.01
2019-01-14T02:01:19.123Z,7.90
2019-01-14T02:06:41.331Z,7.97
2019-01-14T02:12:03.529Z,7.83
2019-01-14T02:17:25.747Z,7.81
2019-01-14T02:22:47.935Z,7.75
2019-01-14T02:28:10.119Z,7.71
2019-01-14T02:33:12.806Z,7.58
2019-01-14T02:38:35.022Z,7.56
2019-01-14T02:43:57.206Z,7.51
2019-01-14T02:49:19.377Z,7.19
2019-01-14T02:54:41.567Z,7.46
2019-01-14T02:59:56.378Z,7.62
2019-01-14T03:05:18.561Z,6.28
2019-01-14T03:10:21.338Z,7.87
2019-01-14T03:15:24.009Z,8.08
2019-01-14T03:20:46.187Z,8.03
2019-01-14T03:26:08.372Z,8.11
2019-01-14T03:31:30.550Z,8.19
2019-01-14T03:36:33.233Z,8.13
2019-01-14T03:41:55.405Z,8.22
2019-01-14T03:46:58.085Z,8.25
2019-01-14T03:52:20.259Z,8.31
2019-01-14T03:57:42.517Z,5.72
2019-01-14T04:02:45.354Z,8.07
2019-01-14T04:08:14.989Z,7.77
2019-01-14T04:13:37.154Z,6.08
2019-01-14T04:18:59.328Z,7.47
2019-01-14T04:24:21.519Z,7.40
2019-01-14T04:29:43.702Z,5.74
2019-01-14T04:35:06.365Z,7.26
2019-01-14T04:40:09.251Z,7.18
2019-01-14T04:45:12.255Z,7.04
2019-01-14T04:50:34.427Z,6.97
2019-01-14T04:55:37.077Z,6.85
2019-01-14T05:00:39.745Z,6.72
2019-01-14T05:06:01.922Z,6.69
2019-01-14T05:11:24.098Z,5.09
2019-01-14T05:16:46.271Z,6.71
2019-01-14T05:22:08.451Z,6.64
2019-01-14T05:27:11.109Z,6.74
2019-01-14T05:32:33.290Z,6.77
2019-01-14T05:37:37.552Z,6.80
2019-01-14T05:43:00.021Z,6.78
2019-01-14T05:48:02.700Z,6.82
2019-01-14T05:53:24.864Z,6.86
2019-01-14T05:58:47.042Z,6.77
2019-01-14T06:04:02.997Z,5.34
2019-01-14T06:09:25.164Z,7.28
2019-01-14T06:14:47.338Z,6.87
2019-01-14T06:20:11.649Z,4.92
2019-01-14T06:25:35.641Z,4.07
2019-01-14T06:30:57.817Z,5.86
2019-01-14T06:36:19.992Z,5.15
2019-01-14T06:41:42.168Z,6.08
2019-01-14T06:47:04.338Z,5.31
2019-01-14T06:52:07.004Z,6.34
2019-01-14T06:57:29.175Z,6.43
2019-01-14T07:02:44.263Z,6.56
2019-01-14T07:07:46.925Z,6.55
2019-01-14T07:13:09.217Z,6.68
2019-01-14T07:18:31.394Z,6.63
2019-01-14T07:23:53.561Z,6.64
2019-01-14T07:29:15.742Z,4.44
2019-01-14T07:34:37.906Z,6.59
2019-01-14T07:40:00.242Z,6.54
2019-01-14T07:45:22.440Z,6.54
2019-01-14T07:50:44.632Z,6.61
2019-01-14T07:56:07.021Z,6.55
2019-01-14T08:01:21.947Z,4.43
2019-01-14T08:06:44.128Z,2.11
2019-01-14T08:12:06.299Z,3.68
2019-01-14T08:17:28.609Z,4.71
2019-01-14T08:22:50.772Z,4.88
2019-01-14T08:28:12.943Z,5.17
2019-01-14T08:33:35.106Z,5.42
2019-01-14T08:38:57.278Z,4.58
2019-01-14T08:49:51.239Z,5.48
2019-01-14T08:55:13.417Z,5.78
2019-01-14T09:00:28.344Z,5.90
2019-01-14T09:05:50.765Z,5.67
2019-01-14T09:11:12.937Z,6.09
2019-01-14T09:16:35.110Z,4.11
2019-01-14T09:21:57.281Z,5.96
2019-01-14T09:27:19.481Z,6.06
2019-01-14T09:32:22.315Z,6.38
2019-01-14T09:37:44.483Z,6.38
2019-01-14T09:43:06.648Z,6.61
2019-01-14T09:48:28.818Z,6.65
2019-01-14T09:53:50.992Z,5.59
2019-01-14T09:59:13.166Z,5.63
2019-01-14T10:04:28.662Z,6.99
2019-01-14T10:09:50.829Z,6.88
2019-01-14T10:14:53.492Z,6.97
2019-01-14T10:20:15.656Z,6.84
2019-01-14T10:25:37.925Z,6.12
2019-01-14T10:31:00.117Z,6.85
2019-01-14T10:36:22.291Z,6.63
2019-01-14T10:41:44.461Z,5.96
2019-01-14T10:47:06.610Z,6.28
2019-01-14T10:52:10.748Z,7.09
2019-01-14T10:57:32.909Z,7.10
2019-01-14T11:02:48.350Z,7.30
2019-01-14T11:08:10.591Z,7.26
2019-01-14T11:13:32.766Z,6.91
2019-01-14T11:18:54.932Z,6.85
2019-01-14T11:24:17.093Z,6.58
2019-01-14T11:29:51.240Z,6.35
2019-01-14T11:35:13.413Z,4.75
2019-01-14T11:40:37.735Z,6.79
2019-01-14T11:45:59.903Z,6.80
2019-01-14T11:51:22.078Z,6.97
2019-01-14T11:56:44.463Z,6.93
2019-01-14T12:01:47.141Z,6.74
2019-01-14T12:07:09.310Z,6.90
2019-01-14T12:12:31.487Z,7.06
2019-01-14T12:17:53.657Z,6.73
2019-01-14T12:23:15.842Z,6.89
2019-01-14T12:28:38.010Z,7.12
2019-01-14T12:34:00.218Z,7.23
2019-01-14T12:39:22.396Z,6.83
2019-01-14T12:44:44.564Z,6.97
2019-01-14T12:50:09.182Z,7.29
2019-01-14T12:55:31.365Z,7.38
2019-01-14T13:00:46.935Z,7.38
2019-01-14T13:06:09.106Z,7.20
2019-01-14T13:11:31.272Z,7.37
2019-01-14T13:16:53.512Z,7.52
2019-01-14T13:22:15.694Z,7.69
2019-01-14T13:33:27.123Z,7.97
2019-01-14T13:38:49.296Z,7.93
2019-01-14T13:44:11.467Z,7.82
2019-01-14T13:49:33.636Z,7.18
2019-01-14T13:54:55.807Z,6.24
2019-01-14T14:00:12.573Z,6.95
2019-01-14T14:05:15.234Z,6.98
2019-01-14T14:10:37.411Z,7.02
2019-01-14T14:15:59.593Z,6.96
2019-01-14T14:21:21.780Z,6.70
2019-01-14T14:26:43.960Z,6.42
2019-01-14T14:32:06.125Z,6.77
2019-01-14T14:37:28.309Z,6.84
2019-01-14T14:42:50.478Z,6.69
2019-01-14T14:48:12.655Z,6.63
2019-01-14T14:53:34.844Z,6.55
2019-01-14T14:58:57.019Z,6.38
2019-01-14T15:04:11.851Z,6.15
2019-01-14T15:09:14.521Z,5.93
2019-01-14T15:14:36.703Z,5.90
2019-01-14T15:19:58.873Z,6.15
2019-01-14T15:25:21.049Z,6.12
2019-01-14T15:30:43.228Z,4.46
2019-01-14T15:36:05.390Z,5.73
2019-01-14T15:41:27.571Z,4.68
2019-01-14T15:46:49.737Z,4.79
2019-01-14T15:52:11.911Z,5.43
2019-01-14T15:57:34.099Z,5.18
2019-01-14T16:02:49.517Z,3.56
2019-01-14T16:08:11.788Z,4.24
2019-01-14T16:13:33.957Z,5.09
2019-01-14T16:18:56.132Z,5.05
2019-01-14T16:24:18.294Z,5.11
2019-01-14T16:29:20.957Z,4.51
2019-01-14T16:34:43.141Z,4.95
2019-01-14T16:40:05.368Z,3.35
2019-01-14T16:45:27.686Z,4.53
2019-01-14T16:50:30.343Z,4.89
2019-01-14T16:56:12.122Z,4.97
2019-01-14T17:01:27.076Z,5.07
2019-01-14T17:06:49.232Z,5.26
2019-01-14T17:12:11.408Z,5.21
2019-01-14T17:17:33.579Z,5.13
2019-01-14T17:22:55.780Z,5.29
2019-01-14T17:27:58.463Z,5.30
2019-01-14T17:33:20.633Z,5.48
2019-01-14T17:38:42.814Z,5.46
2019-01-14T17:44:04.991Z,5.30
2019-01-14T17:49:27.156Z,5.35
2019-01-14T17:54:49.458Z,5.48
2019-01-14T18:00:07.075Z,5.49
2019-01-14T18:05:29.246Z,5.39
2019-01-14T18:10:51.413Z,4.55
2019-01-14T18:16:13.615Z,5.48
2019-01-14T18:21:35.784Z,5.53
2019-01-14T18:26:58.105Z,5.12
2019-01-14T18:32:20.239Z,4.31
2019-01-14T18:37:42.537Z,5.33
2019-01-14T18:43:05.043Z,5.23
2019-01-14T18:48:27.431Z,5.20
2019-01-14T18:53:49.602Z,5.24
2019-01-14T18:59:11.786Z,5.20
2019-01-14T19:04:27.692Z,5.08
2019-01-14T19:09:49.867Z,5.01
2019-01-14T19:15:53.782Z,4.99
2019-01-14T19:21:15.997Z,4.36
2019-01-14T19:26:38.416Z,5.36
2019-01-14T19:32:00.577Z,5.37
2019-01-14T19:37:22.761Z,4.39
2019-01-14T19:42:25.456Z,5.37
2019-01-14T19:47:47.661Z,5.33
2019-01-14T19:53:09.849Z,4.49
2019-01-14T19:58:32.022Z,5.31
2019-01-14T20:03:47.763Z,5.44
2019-01-14T20:09:10.202Z,5.67
2019-01-14T20:14:12.904Z,5.78
2019-01-14T20:19:35.107Z,5.92
2019-01-14T20:24:57.294Z,6.00
2019-01-14T20:30:21.298Z,6.14
2019-01-14T20:35:43.480Z,5.44
2019-01-14T20:41:05.654Z,6.26
2019-01-14T20:46:27.827Z,6.21
2019-01-14T20:51:50.007Z,6.12
2019-01-14T20:57:47.539Z,4.08
2019-01-14T21:02:53.032Z,5.46
2019-01-14T21:08:15.310Z,5.50
2019-01-14T21:13:37.587Z,5.55
2019-01-14T21:18:59.756Z,4.80
2019-01-14T21:24:21.941Z,5.69
2019-01-14T21:29:26.009Z,5.81
2019-01-14T21:34:48.684Z,5.81
2019-01-14T21:39:51.366Z,4.00
2019-01-14T21:45:14.037Z,5.91
2019-01-14T21:50:36.209Z,4.39
2019-01-14T21:55:58.373Z,6.04
2019-01-14T22:01:01.057Z,6.12
2019-01-14T22:06:23.227Z,5.89
2019-01-14T22:11:45.410Z,5.77
2019-01-14T22:17:07.606Z,5.59
2019-01-14T22:22:29.775Z,4.80
2019-01-14T22:27:51.958Z,5.66
2019-01-14T22:33:14.144Z,5.68
2019-01-14T22:38:36.321Z,5.92
2019-01-14T22:43:58.497Z,5.65
2019-01-14T22:49:01.153Z,5.94
2019-01-14T22:54:23.390Z,5.85
2019-01-14T22:59:45.685Z,5.73
2019-01-14T23:05:07.887Z,4.88
2019-01-14T23:10:30.069Z,5.55
2019-01-14T23:15:52.259Z,4.57
2019-01-14T23:21:14.428Z,5.48
2019-01-14T23:26:36.610Z,5.41
2019-01-14T23:31:58.799Z,5.45
2019-01-14T23:37:20.984Z,4.68
2019-01-14T23:42:43.177Z,5.44
2019-01-14T23:48:05.369Z,5.36
2019-01-14T23:53:27.672Z,5.32
2019-01-14T23:58:49.829Z,5.37
